sensor_id;sensor_type;location;lat;lon;timestamp;P1;durP1;ratioP1;P2;durP2;ratioP2
25824;SDS011;13658;44.534;18.694;2023-06-24T00:01:24;7.72;;;3.83;;
25824;SDS011;13658;44.534;18.694;2023-06-24T00:03:50;6.32;;;3.45;;
25824;SDS011;13658;44.534;18.694;2023-06-24T00:06:21;5.97;;;3.50;;
25824;SDS011;13658;44.534;18.694;2023-06-24T00:08:51;9.05;;;4.00;;
25824;SDS011;13658;44.534;18.694;2023-06-24T00:11:18;9.57;;;3.83;;
25824;SDS011;13658;44.534;18.694;2023-06-24T00:13:44;6.78;;;3.70;;
25824;SDS011;13658;44.534;18.694;2023-06-24T00:16:10;7.32;;;3.95;;
25824;SDS011;13658;44.534;18.694;2023-06-24T00:18:36;7.93;;;3.88;;
25824;SDS011;13658;44.534;18.694;2023-06-24T00:21:06;5.43;;;3.60;;
25824;SDS011;13658;44.534;18.694;2023-06-24T00:23:32;7.80;;;3.90;;
25824;SDS011;13658;44.534;18.694;2023-06-24T00:25:59;8.38;;;3.70;;
25824;SDS011;13658;44.534;18.694;2023-06-24T00:28:26;9.32;;;4.50;;
25824;SDS011;13658;44.534;18.694;2023-06-24T00:30:52;8.70;;;3.67;;
25824;SDS011;13658;44.534;18.694;2023-06-24T00:33:19;7.82;;;4.15;;
25824;SDS011;13658;44.534;18.694;2023-06-24T00:35:46;6.70;;;4.03;;
25824;SDS011;13658;44.534;18.694;2023-06-24T00:38:14;6.75;;;3.60;;
25824;SDS011;13658;44.534;18.694;2023-06-24T00:40:40;6.65;;;4.32;;
25824;SDS011;13658;44.534;18.694;2023-06-24T00:43:07;6.38;;;4.45;;
25824;SDS011;13658;44.534;18.694;2023-06-24T00:45:34;11.45;;;4.13;;
25824;SDS011;13658;44.534;18.694;2023-06-24T00:48:00;9.02;;;4.32;;
25824;SDS011;13658;44.534;18.694;2023-06-24T00:50:28;7.20;;;4.15;;
25824;SDS011;13658;44.534;18.694;2023-06-24T00:52:54;8.00;;;4.18;;
25824;SDS011;13658;44.534;18.694;2023-06-24T00:55:21;8.85;;;4.32;;
25824;SDS011;13658;44.534;18.694;2023-06-24T00:57:48;9.20;;;4.28;;
25824;SDS011;13658;44.534;18.694;2023-06-24T01:00:19;6.38;;;4.28;;
25824;SDS011;13658;44.534;18.694;2023-06-24T01:02:47;6.43;;;4.20;;
25824;SDS011;13658;44.534;18.694;2023-06-24T01:05:14;8.63;;;4.07;;
25824;SDS011;13658;44.534;18.694;2023-06-24T01:07:40;6.93;;;4.10;;
25824;SDS011;13658;44.534;18.694;2023-06-24T01:10:08;10.85;;;3.70;;
25824;SDS011;13658;44.534;18.694;2023-06-24T01:12:35;7.40;;;3.70;;
25824;SDS011;13658;44.534;18.694;2023-06-24T01:15:04;7.30;;;3.70;;
25824;SDS011;13658;44.534;18.694;2023-06-24T01:17:36;6.05;;;4.03;;
25824;SDS011;13658;44.534;18.694;2023-06-24T01:34:32;9.02;;;4.32;;
25824;SDS011;13658;44.534;18.694;2023-06-24T01:37:00;5.68;;;3.75;;
25824;SDS011;13658;44.534;18.694;2023-06-24T01:39:46;9.13;;;4.72;;
25824;SDS011;13658;44.534;18.694;2023-06-24T01:42:15;5.68;;;4.20;;
25824;SDS011;13658;44.534;18.694;2023-06-24T01:44:44;9.80;;;5.47;;
25824;SDS011;13658;44.534;18.694;2023-06-24T01:47:12;6.05;;;4.47;;
25824;SDS011;13658;44.534;18.694;2023-06-24T01:49:45;7.10;;;4.70;;
25824;SDS011;13658;44.534;18.694;2023-06-24T01:52:11;8.15;;;4.75;;
25824;SDS011;13658;44.534;18.694;2023-06-24T01:54:39;6.68;;;4.50;;
25824;SDS011;13658;44.534;18.694;2023-06-24T01:57:08;8.98;;;4.95;;
25824;SDS011;13658;44.534;18.694;2023-06-24T01:59:37;7.90;;;4.72;;
25824;SDS011;13658;44.534;18.694;2023-06-24T02:02:06;10.35;;;4.40;;
25824;SDS011;13658;44.534;18.694;2023-06-24T02:04:33;8.25;;;4.72;;
25824;SDS011;13658;44.534;18.694;2023-06-24T02:07:01;9.07;;;4.88;;
25824;SDS011;13658;44.534;18.694;2023-06-24T02:09:29;7.05;;;4.70;;
25824;SDS011;13658;44.534;18.694;2023-06-24T02:11:57;5.90;;;4.53;;
25824;SDS011;13658;44.534;18.694;2023-06-24T02:14:25;8.43;;;5.20;;
25824;SDS011;13658;44.534;18.694;2023-06-24T02:16:53;10.80;;;4.70;;
25824;SDS011;13658;44.534;18.694;2023-06-24T02:19:22;7.85;;;4.80;;
25824;SDS011;13658;44.534;18.694;2023-06-24T02:21:51;9.82;;;4.82;;
25824;SDS011;13658;44.534;18.694;2023-06-24T02:24:21;8.40;;;5.03;;
25824;SDS011;13658;44.534;18.694;2023-06-24T02:26:48;8.75;;;5.28;;
25824;SDS011;13658;44.534;18.694;2023-06-24T02:29:15;9.75;;;5.25;;
25824;SDS011;13658;44.534;18.694;2023-06-24T02:31:43;9.00;;;5.10;;
25824;SDS011;13658;44.534;18.694;2023-06-24T02:34:09;5.78;;;4.70;;
25824;SDS011;13658;44.534;18.694;2023-06-24T02:36:35;9.77;;;5.20;;
25824;SDS011;13658;44.534;18.694;2023-06-24T02:39:01;11.18;;;6.15;;
25824;SDS011;13658;44.534;18.694;2023-06-24T02:41:28;9.27;;;5.53;;
25824;SDS011;13658;44.534;18.694;2023-06-24T02:43:53;15.48;;;8.30;;
25824;SDS011;13658;44.534;18.694;2023-06-24T02:46:20;11.40;;;6.00;;
25824;SDS011;13658;44.534;18.694;2023-06-24T02:48:47;12.27;;;5.90;;
25824;SDS011;13658;44.534;18.694;2023-06-24T02:51:14;8.73;;;5.80;;
25824;SDS011;13658;44.534;18.694;2023-06-24T02:53:41;11.77;;;7.47;;
25824;SDS011;13658;44.534;18.694;2023-06-24T02:56:11;10.40;;;6.10;;
25824;SDS011;13658;44.534;18.694;2023-06-24T02:58:41;9.43;;;5.30;;
25824;SDS011;13658;44.534;18.694;2023-06-24T03:01:14;7.38;;;5.00;;
25824;SDS011;13658;44.534;18.694;2023-06-24T03:03:47;11.07;;;5.70;;
25824;SDS011;13658;44.534;18.694;2023-06-24T03:06:14;8.38;;;5.65;;
25824;SDS011;13658;44.534;18.694;2023-06-24T03:08:44;10.40;;;6.40;;
25824;SDS011;13658;44.534;18.694;2023-06-24T03:11:14;14.43;;;8.55;;
25824;SDS011;13658;44.534;18.694;2023-06-24T03:13:41;11.00;;;5.97;;
25824;SDS011;13658;44.534;18.694;2023-06-24T03:16:14;9.35;;;5.75;;
25824;SDS011;13658;44.534;18.694;2023-06-24T03:18:49;8.60;;;6.00;;
25824;SDS011;13658;44.534;18.694;2023-06-24T03:21:15;13.50;;;5.22;;
25824;SDS011;13658;44.534;18.694;2023-06-24T03:23:43;9.25;;;5.10;;
25824;SDS011;13658;44.534;18.694;2023-06-24T03:26:11;8.20;;;5.20;;
25824;SDS011;13658;44.534;18.694;2023-06-24T03:28:37;8.52;;;4.38;;
25824;SDS011;13658;44.534;18.694;2023-06-24T03:31:10;8.43;;;4.50;;
25824;SDS011;13658;44.534;18.694;2023-06-24T03:33:37;5.03;;;4.47;;
25824;SDS011;13658;44.534;18.694;2023-06-24T03:36:04;9.07;;;4.90;;
25824;SDS011;13658;44.534;18.694;2023-06-24T03:38:33;9.20;;;6.40;;
25824;SDS011;13658;44.534;18.694;2023-06-24T03:40:59;9.48;;;6.32;;
25824;SDS011;13658;44.534;18.694;2023-06-24T03:43:26;7.72;;;4.90;;
25824;SDS011;13658;44.534;18.694;2023-06-24T03:45:52;8.00;;;5.10;;
25824;SDS011;13658;44.534;18.694;2023-06-24T03:48:19;8.60;;;4.93;;
25824;SDS011;13658;44.534;18.694;2023-06-24T03:50:45;9.75;;;5.18;;
25824;SDS011;13658;44.534;18.694;2023-06-24T03:53:11;8.57;;;5.20;;
25824;SDS011;13658;44.534;18.694;2023-06-24T03:55:37;7.93;;;4.70;;
25824;SDS011;13658;44.534;18.694;2023-06-24T03:58:04;10.35;;;5.30;;
25824;SDS011;13658;44.534;18.694;2023-06-24T04:00:30;10.80;;;6.40;;
25824;SDS011;13658;44.534;18.694;2023-06-24T04:02:56;7.95;;;5.15;;
25824;SDS011;13658;44.534;18.694;2023-06-24T04:05:26;5.85;;;4.88;;
25824;SDS011;13658;44.534;18.694;2023-06-24T04:07:52;10.57;;;5.72;;
25824;SDS011;13658;44.534;18.694;2023-06-24T04:10:19;9.13;;;5.72;;
25824;SDS011;13658;44.534;18.694;2023-06-24T04:12:45;11.63;;;5.43;;
25824;SDS011;13658;44.534;18.694;2023-06-24T04:15:11;10.73;;;6.13;;
25824;SDS011;13658;44.534;18.694;2023-06-24T04:17:37;9.80;;;5.75;;
25824;SDS011;13658;44.534;18.694;2023-06-24T04:20:04;10.90;;;6.25;;
25824;SDS011;13658;44.534;18.694;2023-06-24T04:22:40;9.93;;;5.95;;
25824;SDS011;13658;44.534;18.694;2023-06-24T04:25:07;8.80;;;6.10;;
25824;SDS011;13658;44.534;18.694;2023-06-24T04:27:34;10.02;;;5.55;;
25824;SDS011;13658;44.534;18.694;2023-06-24T04:30:01;11.02;;;6.18;;
25824;SDS011;13658;44.534;18.694;2023-06-24T04:32:29;13.52;;;8.30;;
25824;SDS011;13658;44.534;18.694;2023-06-24T04:34:55;11.90;;;6.78;;
25824;SDS011;13658;44.534;18.694;2023-06-24T04:37:22;8.50;;;6.72;;
25824;SDS011;13658;44.534;18.694;2023-06-24T04:39:49;8.95;;;5.85;;
25824;SDS011;13658;44.534;18.694;2023-06-24T04:42:15;9.30;;;6.25;;
25824;SDS011;13658;44.534;18.694;2023-06-24T04:44:41;22.00;;;11.93;;
25824;SDS011;13658;44.534;18.694;2023-06-24T04:47:07;12.50;;;8.00;;
25824;SDS011;13658;44.534;18.694;2023-06-24T04:49:34;12.02;;;7.90;;
25824;SDS011;13658;44.534;18.694;2023-06-24T04:52:01;14.50;;;7.97;;
25824;SDS011;13658;44.534;18.694;2023-06-24T04:54:28;9.07;;;5.72;;
25824;SDS011;13658;44.534;18.694;2023-06-24T04:56:54;9.25;;;5.78;;
25824;SDS011;13658;44.534;18.694;2023-06-24T04:59:21;12.10;;;6.05;;
25824;SDS011;13658;44.534;18.694;2023-06-24T05:01:51;11.73;;;9.20;;
25824;SDS011;13658;44.534;18.694;2023-06-24T05:04:17;7.97;;;5.88;;
25824;SDS011;13658;44.534;18.694;2023-06-24T05:06:43;9.35;;;7.00;;
25824;SDS011;13658;44.534;18.694;2023-06-24T05:09:09;7.60;;;5.85;;
25824;SDS011;13658;44.534;18.694;2023-06-24T05:11:39;8.68;;;5.55;;
25824;SDS011;13658;44.534;18.694;2023-06-24T05:14:06;10.38;;;7.50;;
25824;SDS011;13658;44.534;18.694;2023-06-24T05:16:32;8.75;;;6.25;;
25824;SDS011;13658;44.534;18.694;2023-06-24T05:18:58;9.40;;;6.03;;
25824;SDS011;13658;44.534;18.694;2023-06-24T05:21:24;7.82;;;5.28;;
25824;SDS011;13658;44.534;18.694;2023-06-24T05:23:50;8.65;;;5.60;;
25824;SDS011;13658;44.534;18.694;2023-06-24T05:26:16;13.35;;;7.22;;
25824;SDS011;13658;44.534;18.694;2023-06-24T05:28:42;17.02;;;6.78;;
25824;SDS011;13658;44.534;18.694;2023-06-24T05:31:08;9.15;;;6.20;;
25824;SDS011;13658;44.534;18.694;2023-06-24T05:33:34;9.55;;;6.07;;
25824;SDS011;13658;44.534;18.694;2023-06-24T05:36:00;11.25;;;6.35;;
25824;SDS011;13658;44.534;18.694;2023-06-24T05:38:26;7.32;;;5.78;;
25824;SDS011;13658;44.534;18.694;2023-06-24T05:40:52;10.43;;;8.77;;
25824;SDS011;13658;44.534;18.694;2023-06-24T05:43:19;11.57;;;7.22;;
25824;SDS011;13658;44.534;18.694;2023-06-24T05:45:45;10.32;;;6.53;;
25824;SDS011;13658;44.534;18.694;2023-06-24T05:48:12;8.65;;;5.85;;
25824;SDS011;13658;44.534;18.694;2023-06-24T05:50:39;9.95;;;6.63;;
25824;SDS011;13658;44.534;18.694;2023-06-24T05:53:05;10.80;;;5.72;;
25824;SDS011;13658;44.534;18.694;2023-06-24T05:55:31;9.82;;;7.10;;
25824;SDS011;13658;44.534;18.694;2023-06-24T05:57:57;13.90;;;8.57;;
25824;SDS011;13658;44.534;18.694;2023-06-24T06:00:23;13.38;;;6.72;;
25824;SDS011;13658;44.534;18.694;2023-06-24T06:02:49;12.40;;;8.40;;
25824;SDS011;13658;44.534;18.694;2023-06-24T06:05:15;9.73;;;7.22;;
25824;SDS011;13658;44.534;18.694;2023-06-24T06:07:41;10.27;;;6.75;;
25824;SDS011;13658;44.534;18.694;2023-06-24T06:10:09;11.95;;;7.63;;
25824;SDS011;13658;44.534;18.694;2023-06-24T06:12:36;12.30;;;8.75;;
25824;SDS011;13658;44.534;18.694;2023-06-24T06:15:02;20.92;;;10.60;;
25824;SDS011;13658;44.534;18.694;2023-06-24T06:17:28;11.52;;;8.13;;
25824;SDS011;13658;44.534;18.694;2023-06-24T06:19:54;12.02;;;8.32;;
25824;SDS011;13658;44.534;18.694;2023-06-24T06:22:20;10.13;;;7.13;;
25824;SDS011;13658;44.534;18.694;2023-06-24T06:24:46;9.77;;;6.25;;
25824;SDS011;13658;44.534;18.694;2023-06-24T06:27:13;8.70;;;6.20;;
25824;SDS011;13658;44.534;18.694;2023-06-24T06:29:39;12.70;;;8.13;;
25824;SDS011;13658;44.534;18.694;2023-06-24T06:32:05;10.10;;;6.63;;
25824;SDS011;13658;44.534;18.694;2023-06-24T06:34:32;8.48;;;5.75;;
25824;SDS011;13658;44.534;18.694;2023-06-24T06:36:58;9.07;;;6.50;;
25824;SDS011;13658;44.534;18.694;2023-06-24T06:39:24;10.27;;;7.15;;
25824;SDS011;13658;44.534;18.694;2023-06-24T06:41:50;9.02;;;5.65;;
25824;SDS011;13658;44.534;18.694;2023-06-24T06:44:16;8.88;;;7.28;;
25824;SDS011;13658;44.534;18.694;2023-06-24T06:46:42;9.57;;;7.70;;
25824;SDS011;13658;44.534;18.694;2023-06-24T06:49:08;12.13;;;7.10;;
25824;SDS011;13658;44.534;18.694;2023-06-24T06:51:34;15.77;;;10.88;;
25824;SDS011;13658;44.534;18.694;2023-06-24T06:54:01;14.55;;;10.95;;
25824;SDS011;13658;44.534;18.694;2023-06-24T06:56:28;15.68;;;8.82;;
25824;SDS011;13658;44.534;18.694;2023-06-24T06:58:54;11.93;;;7.90;;
25824;SDS011;13658;44.534;18.694;2023-06-24T07:01:20;10.40;;;7.78;;
25824;SDS011;13658;44.534;18.694;2023-06-24T07:03:46;10.82;;;7.53;;
25824;SDS011;13658;44.534;18.694;2023-06-24T07:06:14;11.93;;;6.97;;
25824;SDS011;13658;44.534;18.694;2023-06-24T07:08:40;10.02;;;7.50;;
25824;SDS011;13658;44.534;18.694;2023-06-24T07:11:06;10.63;;;8.50;;
25824;SDS011;13658;44.534;18.694;2023-06-24T07:13:32;16.33;;;10.75;;
25824;SDS011;13658;44.534;18.694;2023-06-24T07:15:58;14.43;;;7.20;;
25824;SDS011;13658;44.534;18.694;2023-06-24T07:18:24;10.32;;;8.40;;
25824;SDS011;13658;44.534;18.694;2023-06-24T07:20:50;10.77;;;7.65;;
25824;SDS011;13658;44.534;18.694;2023-06-24T07:23:18;16.60;;;10.80;;
25824;SDS011;13658;44.534;18.694;2023-06-24T07:25:44;15.40;;;11.90;;
25824;SDS011;13658;44.534;18.694;2023-06-24T07:28:10;10.07;;;6.93;;
25824;SDS011;13658;44.534;18.694;2023-06-24T07:30:36;11.25;;;7.45;;
25824;SDS011;13658;44.534;18.694;2023-06-24T07:33:02;12.32;;;9.05;;
25824;SDS011;13658;44.534;18.694;2023-06-24T07:35:31;12.45;;;6.65;;
25824;SDS011;13658;44.534;18.694;2023-06-24T07:37:58;11.75;;;8.50;;
25824;SDS011;13658;44.534;18.694;2023-06-24T07:40:24;12.40;;;8.15;;
25824;SDS011;13658;44.534;18.694;2023-06-24T07:42:50;11.13;;;8.85;;
25824;SDS011;13658;44.534;18.694;2023-06-24T07:45:16;13.93;;;9.38;;
25824;SDS011;13658;44.534;18.694;2023-06-24T07:47:42;12.13;;;8.80;;
25824;SDS011;13658;44.534;18.694;2023-06-24T07:50:08;13.07;;;7.88;;
25824;SDS011;13658;44.534;18.694;2023-06-24T07:52:36;15.23;;;8.30;;
25824;SDS011;13658;44.534;18.694;2023-06-24T07:55:03;11.00;;;8.00;;
25824;SDS011;13658;44.534;18.694;2023-06-24T07:57:29;17.27;;;10.82;;
25824;SDS011;13658;44.534;18.694;2023-06-24T07:59:55;11.70;;;8.02;;
25824;SDS011;13658;44.534;18.694;2023-06-24T08:02:21;19.45;;;12.15;;
25824;SDS011;13658;44.534;18.694;2023-06-24T08:04:49;19.63;;;11.88;;
25824;SDS011;13658;44.534;18.694;2023-06-24T08:07:15;13.77;;;9.43;;
25824;SDS011;13658;44.534;18.694;2023-06-24T08:09:42;14.18;;;9.98;;
25824;SDS011;13658;44.534;18.694;2023-06-24T08:12:08;14.90;;;11.40;;
25824;SDS011;13658;44.534;18.694;2023-06-24T08:14:34;13.57;;;9.45;;
25824;SDS011;13658;44.534;18.694;2023-06-24T08:17:01;18.90;;;9.88;;
25824;SDS011;13658;44.534;18.694;2023-06-24T08:19:27;13.20;;;8.90;;
25824;SDS011;13658;44.534;18.694;2023-06-24T08:21:53;12.20;;;8.70;;
25824;SDS011;13658;44.534;18.694;2023-06-24T08:24:19;13.43;;;10.75;;
25824;SDS011;13658;44.534;18.694;2023-06-24T08:26:45;11.20;;;8.32;;
25824;SDS011;13658;44.534;18.694;2023-06-24T08:29:11;10.55;;;8.57;;
25824;SDS011;13658;44.534;18.694;2023-06-24T08:31:37;11.18;;;9.20;;
25824;SDS011;13658;44.534;18.694;2023-06-24T08:34:03;15.07;;;10.30;;
25824;SDS011;13658;44.534;18.694;2023-06-24T08:36:31;10.40;;;8.02;;
25824;SDS011;13658;44.534;18.694;2023-06-24T08:38:57;9.48;;;7.22;;
25824;SDS011;13658;44.534;18.694;2023-06-24T08:41:23;9.25;;;6.85;;
25824;SDS011;13658;44.534;18.694;2023-06-24T08:43:50;8.68;;;7.50;;
25824;SDS011;13658;44.534;18.694;2023-06-24T08:46:17;9.73;;;8.07;;
25824;SDS011;13658;44.534;18.694;2023-06-24T08:48:45;11.10;;;9.13;;
25824;SDS011;13658;44.534;18.694;2023-06-24T08:51:13;12.18;;;8.77;;
25824;SDS011;13658;44.534;18.694;2023-06-24T08:53:43;12.40;;;7.68;;
25824;SDS011;13658;44.534;18.694;2023-06-24T08:56:10;12.50;;;9.10;;
25824;SDS011;13658;44.534;18.694;2023-06-24T08:58:37;12.82;;;8.95;;
25824;SDS011;13658;44.534;18.694;2023-06-24T09:01:03;13.77;;;12.02;;
25824;SDS011;13658;44.534;18.694;2023-06-24T09:03:29;9.02;;;7.55;;
25824;SDS011;13658;44.534;18.694;2023-06-24T09:05:55;20.90;;;15.10;;
25824;SDS011;13658;44.534;18.694;2023-06-24T09:08:21;13.52;;;9.20;;
25824;SDS011;13658;44.534;18.694;2023-06-24T09:10:52;18.20;;;11.40;;
25824;SDS011;13658;44.534;18.694;2023-06-24T09:13:27;16.65;;;10.82;;
25824;SDS011;13658;44.534;18.694;2023-06-24T09:16:07;16.98;;;12.60;;
25824;SDS011;13658;44.534;18.694;2023-06-24T09:18:38;11.32;;;8.45;;
25824;SDS011;13658;44.534;18.694;2023-06-24T09:21:04;11.23;;;8.25;;
25824;SDS011;13658;44.534;18.694;2023-06-24T09:23:34;9.45;;;8.35;;
25824;SDS011;13658;44.534;18.694;2023-06-24T09:26:02;12.10;;;9.35;;
25824;SDS011;13658;44.534;18.694;2023-06-24T09:28:28;22.77;;;15.55;;
25824;SDS011;13658;44.534;18.694;2023-06-24T09:31:04;13.40;;;9.15;;
25824;SDS011;13658;44.534;18.694;2023-06-24T09:33:31;12.60;;;9.40;;
25824;SDS011;13658;44.534;18.694;2023-06-24T09:35:58;9.70;;;7.63;;
25824;SDS011;13658;44.534;18.694;2023-06-24T09:38:36;8.80;;;6.93;;
25824;SDS011;13658;44.534;18.694;2023-06-24T09:41:04;7.30;;;5.82;;
25824;SDS011;13658;44.534;18.694;2023-06-24T09:43:34;7.82;;;6.57;;
25824;SDS011;13658;44.534;18.694;2023-06-24T09:46:05;10.73;;;8.52;;
25824;SDS011;13658;44.534;18.694;2023-06-24T09:48:35;9.63;;;6.80;;
25824;SDS011;13658;44.534;18.694;2023-06-24T09:51:02;9.68;;;7.72;;
25824;SDS011;13658;44.534;18.694;2023-06-24T09:53:33;6.90;;;6.28;;
25824;SDS011;13658;44.534;18.694;2023-06-24T09:56:00;9.32;;;7.47;;
25824;SDS011;13658;44.534;18.694;2023-06-24T09:58:32;10.05;;;7.00;;
25824;SDS011;13658;44.534;18.694;2023-06-24T10:01:02;7.63;;;6.20;;
25824;SDS011;13658;44.534;18.694;2023-06-24T10:03:29;7.20;;;6.22;;
25824;SDS011;13658;44.534;18.694;2023-06-24T10:05:59;7.65;;;6.75;;
25824;SDS011;13658;44.534;18.694;2023-06-24T10:08:27;9.68;;;7.25;;
25824;SDS011;13658;44.534;18.694;2023-06-24T10:10:55;7.60;;;6.68;;
25824;SDS011;13658;44.534;18.694;2023-06-24T10:13:21;6.95;;;5.70;;
25824;SDS011;13658;44.534;18.694;2023-06-24T10:15:48;8.30;;;6.20;;
25824;SDS011;13658;44.534;18.694;2023-06-24T10:21:12;9.30;;;6.07;;
25824;SDS011;13658;44.534;18.694;2023-06-24T10:23:42;8.57;;;6.22;;
25824;SDS011;13658;44.534;18.694;2023-06-24T10:26:25;7.28;;;6.18;;
25824;SDS011;13658;44.534;18.694;2023-06-24T10:36:57;10.68;;;5.80;;
25824;SDS011;13658;44.534;18.694;2023-06-24T10:39:38;8.00;;;6.90;;
25824;SDS011;13658;44.534;18.694;2023-06-24T10:44:56;6.35;;;5.22;;
25824;SDS011;13658;44.534;18.694;2023-06-24T10:47:27;6.55;;;5.85;;
25824;SDS011;13658;44.534;18.694;2023-06-24T10:49:55;11.73;;;7.05;;
25824;SDS011;13658;44.534;18.694;2023-06-24T10:52:22;12.25;;;9.93;;
25824;SDS011;13658;44.534;18.694;2023-06-24T10:54:51;9.93;;;6.03;;
25824;SDS011;13658;44.534;18.694;2023-06-24T10:57:25;7.35;;;6.15;;
25824;SDS011;13658;44.534;18.694;2023-06-24T10:59:56;10.98;;;8.73;;
25824;SDS011;13658;44.534;18.694;2023-06-24T11:02:26;8.85;;;7.32;;
25824;SDS011;13658;44.534;18.694;2023-06-24T11:04:54;7.93;;;7.13;;
25824;SDS011;13658;44.534;18.694;2023-06-24T11:07:26;8.45;;;5.85;;
25824;SDS011;13658;44.534;18.694;2023-06-24T11:10:06;8.93;;;5.47;;
25824;SDS011;13658;44.534;18.694;2023-06-24T11:12:36;5.03;;;4.53;;
25824;SDS011;13658;44.534;18.694;2023-06-24T11:15:04;5.07;;;4.57;;
25824;SDS011;13658;44.534;18.694;2023-06-24T11:17:34;7.55;;;5.75;;
25824;SDS011;13658;44.534;18.694;2023-06-24T11:20:01;16.27;;;11.38;;
25824;SDS011;13658;44.534;18.694;2023-06-24T11:22:31;8.27;;;6.57;;
25824;SDS011;13658;44.534;18.694;2023-06-24T11:24:57;8.70;;;7.80;;
25824;SDS011;13658;44.534;18.694;2023-06-24T11:27:27;6.65;;;4.55;;
25824;SDS011;13658;44.534;18.694;2023-06-24T11:29:54;7.90;;;6.22;;
25824;SDS011;13658;44.534;18.694;2023-06-24T11:32:40;10.35;;;5.70;;
25824;SDS011;13658;44.534;18.694;2023-06-24T11:35:10;11.20;;;4.97;;
25824;SDS011;13658;44.534;18.694;2023-06-24T11:37:40;8.95;;;5.78;;
25824;SDS011;13658;44.534;18.694;2023-06-24T11:40:10;6.00;;;4.50;;
25824;SDS011;13658;44.534;18.694;2023-06-24T11:42:38;10.63;;;5.38;;
25824;SDS011;13658;44.534;18.694;2023-06-24T11:45:09;8.55;;;5.78;;
25824;SDS011;13658;44.534;18.694;2023-06-24T11:47:37;11.65;;;5.90;;
25824;SDS011;13658;44.534;18.694;2023-06-24T11:50:04;8.32;;;5.20;;
25824;SDS011;13658;44.534;18.694;2023-06-24T11:52:32;6.38;;;4.65;;
25824;SDS011;13658;44.534;18.694;2023-06-24T11:55:02;5.57;;;4.50;;
25824;SDS011;13658;44.534;18.694;2023-06-24T11:57:48;4.90;;;4.07;;
25824;SDS011;13658;44.534;18.694;2023-06-24T12:00:31;6.30;;;5.50;;
25824;SDS011;13658;44.534;18.694;2023-06-24T12:03:00;3.83;;;3.15;;
25824;SDS011;13658;44.534;18.694;2023-06-24T12:05:34;6.10;;;5.50;;
25824;SDS011;13658;44.534;18.694;2023-06-24T12:08:05;6.75;;;4.05;;
25824;SDS011;13658;44.534;18.694;2023-06-24T12:10:36;4.15;;;3.72;;
25824;SDS011;13658;44.534;18.694;2023-06-24T12:13:03;4.10;;;3.70;;
25824;SDS011;13658;44.534;18.694;2023-06-24T12:15:31;4.50;;;3.90;;
25824;SDS011;13658;44.534;18.694;2023-06-24T12:17:57;4.68;;;3.65;;
25824;SDS011;13658;44.534;18.694;2023-06-24T12:20:24;5.32;;;3.88;;
25824;SDS011;13658;44.534;18.694;2023-06-24T12:22:51;4.22;;;3.35;;
25824;SDS011;13658;44.534;18.694;2023-06-24T12:25:17;9.27;;;5.13;;
25824;SDS011;13658;44.534;18.694;2023-06-24T12:27:44;4.82;;;3.40;;
25824;SDS011;13658;44.534;18.694;2023-06-24T12:30:11;7.90;;;5.05;;
25824;SDS011;13658;44.534;18.694;2023-06-24T12:32:38;6.95;;;6.03;;
25824;SDS011;13658;44.534;18.694;2023-06-24T12:35:04;5.60;;;4.90;;
25824;SDS011;13658;44.534;18.694;2023-06-24T12:37:32;7.97;;;5.07;;
25824;SDS011;13658;44.534;18.694;2023-06-24T12:40:08;6.78;;;4.22;;
25824;SDS011;13658;44.534;18.694;2023-06-24T12:42:48;4.03;;;3.63;;
25824;SDS011;13658;44.534;18.694;2023-06-24T12:45:14;12.73;;;6.03;;
25824;SDS011;13658;44.534;18.694;2023-06-24T12:47:41;5.15;;;3.60;;
25824;SDS011;13658;44.534;18.694;2023-06-24T12:50:07;4.40;;;4.00;;
25824;SDS011;13658;44.534;18.694;2023-06-24T12:52:34;5.22;;;3.25;;
25824;SDS011;13658;44.534;18.694;2023-06-24T12:55:00;4.75;;;3.10;;
25824;SDS011;13658;44.534;18.694;2023-06-24T12:57:26;7.78;;;4.60;;
25824;SDS011;13658;44.534;18.694;2023-06-24T12:59:52;5.57;;;3.55;;
25824;SDS011;13658;44.534;18.694;2023-06-24T13:02:18;5.35;;;3.70;;
25824;SDS011;13658;44.534;18.694;2023-06-24T13:04:44;6.38;;;3.90;;
25824;SDS011;13658;44.534;18.694;2023-06-24T13:07:12;5.65;;;3.40;;
25824;SDS011;13658;44.534;18.694;2023-06-24T13:09:38;6.47;;;4.10;;
25824;SDS011;13658;44.534;18.694;2023-06-24T13:12:05;5.22;;;4.03;;
25824;SDS011;13658;44.534;18.694;2023-06-24T13:14:31;8.15;;;4.38;;
25824;SDS011;13658;44.534;18.694;2023-06-24T13:16:57;7.78;;;4.68;;
25824;SDS011;13658;44.534;18.694;2023-06-24T13:19:23;9.93;;;5.72;;
25824;SDS011;13658;44.534;18.694;2023-06-24T13:21:49;11.35;;;6.47;;
25824;SDS011;13658;44.534;18.694;2023-06-24T13:24:15;12.60;;;7.43;;
25824;SDS011;13658;44.534;18.694;2023-06-24T13:26:42;6.85;;;4.75;;
25824;SDS011;13658;44.534;18.694;2023-06-24T13:29:08;7.55;;;3.90;;
25824;SDS011;13658;44.534;18.694;2023-06-24T13:31:34;5.03;;;3.53;;
25824;SDS011;13658;44.534;18.694;2023-06-24T13:34:00;5.25;;;4.80;;
25824;SDS011;13658;44.534;18.694;2023-06-24T13:36:30;7.75;;;5.03;;
25824;SDS011;13658;44.534;18.694;2023-06-24T13:38:58;8.43;;;7.15;;
25824;SDS011;13658;44.534;18.694;2023-06-24T13:41:24;9.18;;;7.60;;
25824;SDS011;13658;44.534;18.694;2023-06-24T13:43:54;11.27;;;6.30;;
25824;SDS011;13658;44.534;18.694;2023-06-24T13:46:22;6.70;;;4.38;;
25824;SDS011;13658;44.534;18.694;2023-06-24T13:48:48;7.85;;;4.72;;
25824;SDS011;13658;44.534;18.694;2023-06-24T13:51:15;4.50;;;4.10;;
25824;SDS011;13658;44.534;18.694;2023-06-24T13:53:43;5.55;;;4.13;;
25824;SDS011;13658;44.534;18.694;2023-06-24T13:56:09;6.35;;;4.65;;
25824;SDS011;13658;44.534;18.694;2023-06-24T13:58:35;6.65;;;4.57;;
25824;SDS011;13658;44.534;18.694;2023-06-24T14:01:01;8.50;;;4.15;;
25824;SDS011;13658;44.534;18.694;2023-06-24T14:03:27;7.28;;;4.55;;
25824;SDS011;13658;44.534;18.694;2023-06-24T14:05:53;7.55;;;4.40;;
25824;SDS011;13658;44.534;18.694;2023-06-24T14:08:19;7.90;;;4.70;;
25824;SDS011;13658;44.534;18.694;2023-06-24T14:10:45;6.47;;;4.13;;
25824;SDS011;13658;44.534;18.694;2023-06-24T14:13:11;5.63;;;4.00;;
25824;SDS011;13658;44.534;18.694;2023-06-24T14:15:37;6.65;;;4.20;;
25824;SDS011;13658;44.534;18.694;2023-06-24T14:18:03;6.82;;;4.28;;
25824;SDS011;13658;44.534;18.694;2023-06-24T14:20:29;10.15;;;6.05;;
25824;SDS011;13658;44.534;18.694;2023-06-24T14:22:55;8.65;;;3.97;;
25824;SDS011;13658;44.534;18.694;2023-06-24T14:25:21;10.05;;;6.90;;
25824;SDS011;13658;44.534;18.694;2023-06-24T14:27:48;5.30;;;4.72;;
25824;SDS011;13658;44.534;18.694;2023-06-24T14:30:14;7.55;;;5.28;;
25824;SDS011;13658;44.534;18.694;2023-06-24T14:32:40;8.35;;;5.65;;
25824;SDS011;13658;44.534;18.694;2023-06-24T14:35:06;7.97;;;5.78;;
25824;SDS011;13658;44.534;18.694;2023-06-24T14:37:33;8.38;;;5.63;;
25824;SDS011;13658;44.534;18.694;2023-06-24T14:39:59;6.90;;;5.55;;
25824;SDS011;13658;44.534;18.694;2023-06-24T14:42:25;8.40;;;5.30;;
25824;SDS011;13658;44.534;18.694;2023-06-24T14:44:51;10.02;;;6.15;;
25824;SDS011;13658;44.534;18.694;2023-06-24T14:47:17;9.27;;;6.25;;
25824;SDS011;13658;44.534;18.694;2023-06-24T14:49:43;10.13;;;5.88;;
25824;SDS011;13658;44.534;18.694;2023-06-24T14:52:09;11.50;;;6.40;;
25824;SDS011;13658;44.534;18.694;2023-06-24T14:54:35;9.73;;;7.65;;
25824;SDS011;13658;44.534;18.694;2023-06-24T14:57:01;11.50;;;7.03;;
25824;SDS011;13658;44.534;18.694;2023-06-24T14:59:27;12.95;;;7.68;;